createdAt,value
2022-11-29T13:18:54.635Z,101407.00
2022-11-29T13:22:28.747Z,101408.36
2022-11-29T13:25:58.736Z,101410.27
2022-11-29T13:29:27.476Z,101413.69
2022-11-29T13:33:00.272Z,101416.27
2022-11-29T13:36:39.867Z,101419.37
2022-11-29T13:40:21.067Z,101421.27
2022-11-29T13:43:53.161Z,101427.27
2022-11-29T13:47:21.345Z,101431.40
2022-11-29T13:50:51.381Z,101435.86
2022-11-29T13:54:32.135Z,101436.20
2022-11-29T13:58:20.709Z,101437.40
2022-11-29T14:01:52.869Z,101444.41
2022-11-29T14:05:33.590Z,101444.27
2022-11-29T14:09:20.288Z,101444.94
2022-11-29T14:12:54.796Z,101447.51
2022-11-29T14:16:30.412Z,101452.30
2022-11-29T14:20:33.970Z,101453.84
2022-11-29T14:24:42.182Z,101455.40
2022-11-29T14:28:31.694Z,101455.05
2022-11-29T14:32:00.281Z,101460.70
2022-11-29T14:35:35.471Z,101460.36
2022-11-29T14:39:14.964Z,101468.41
2022-11-29T14:42:49.806Z,101467.05
2022-11-29T14:46:29.630Z,101469.11
2022-11-29T14:49:58.588Z,101460.88
2022-11-29T14:53:37.357Z,101464.66
2022-11-29T14:57:40.981Z,101466.02
2022-11-29T15:01:10.975Z,101468.41
2022-11-29T15:04:40.084Z,101474.93
2022-11-29T15:08:13.504Z,101469.80
2022-11-29T15:11:56.836Z,101475.44
2022-11-29T15:15:46.088Z,101473.91
2022-11-29T15:19:50.809Z,101473.39
2022-11-29T15:23:19.626Z,101478.36
2022-11-29T15:26:59.524Z,101477.15
2022-11-29T15:30:48.691Z,101476.65
2022-11-29T15:34:24.995Z,101477.52
2022-11-29T15:37:53.348Z,101479.91
2022-11-29T15:41:28.980Z,101479.58
2022-11-29T15:44:55.949Z,101481.79
2022-11-29T15:48:25.544Z,101485.55
2022-11-29T15:51:57.021Z,101482.82
2022-11-29T15:55:24.363Z,101485.05
2022-11-29T15:58:52.635Z,101475.27
2022-11-29T16:02:22.720Z,101481.28
2022-11-29T16:05:56.439Z,101483.85
2022-11-29T16:09:36.288Z,101485.56
2022-11-29T16:13:06.929Z,101486.60
2022-11-29T16:16:35.922Z,101482.12
2022-11-29T16:20:24.902Z,101484.87
2022-11-29T16:23:51.807Z,101485.05
2022-11-29T16:27:20.679Z,101487.96
2022-11-29T16:30:58.014Z,101485.21
2022-11-29T16:34:33.388Z,101485.73
2022-11-29T16:38:00.807Z,101490.19
2022-11-29T16:41:36.169Z,101492.60
2022-11-29T16:45:07.337Z,101497.40
2022-11-29T16:48:38.779Z,101500.46
2022-11-29T16:52:24.766Z,101504.94
2022-11-29T16:55:53.113Z,101506.48
2022-11-29T16:59:27.864Z,101505.97
2022-11-29T17:02:58.424Z,101500.83
2022-11-29T17:06:26.504Z,101509.23
2022-11-29T17:09:54.939Z,101513.18
2022-11-29T17:13:21.596Z,101513.52
2022-11-29T17:16:50.009Z,101515.22
2022-11-29T17:20:17.491Z,101515.73
2022-11-29T17:23:44.464Z,101516.77
2022-11-29T17:27:12.813Z,101522.26
2022-11-29T17:30:41.286Z,101527.06
2022-11-29T17:34:11.444Z,101530.48
2022-11-29T17:37:41.207Z,101533.39
2022-11-29T17:41:18.235Z,101534.09
2022-11-29T17:44:47.873Z,101534.59
2022-11-29T17:48:15.410Z,101535.96
2022-11-29T17:51:51.716Z,101537.34
2022-11-29T17:55:20.949Z,101535.63
2022-11-29T17:58:52.362Z,101536.84
2022-11-29T18:02:19.552Z,101537.01
2022-11-29T18:05:46.481Z,101540.60
2022-11-29T18:09:14.230Z,101544.54
2022-11-29T18:12:41.550Z,101541.29
2022-11-29T18:16:13.182Z,101546.27
2022-11-29T18:19:40.042Z,101544.90
2022-11-29T18:23:08.374Z,101548.31
2022-11-29T18:26:36.858Z,101554.15
2022-11-29T18:30:09.548Z,101558.61
2022-11-29T18:33:36.115Z,101562.38
2022-11-29T18:37:03.689Z,101563.58
2022-11-29T18:40:31.431Z,101562.71
2022-11-29T18:44:03.422Z,101563.05
2022-11-29T18:47:33.113Z,101563.74
2022-11-29T18:51:04.579Z,101563.91
2022-11-29T18:54:31.619Z,101567.86
2022-11-29T18:57:58.444Z,101568.89
2022-11-29T19:01:26.580Z,101567.52
2022-11-29T19:04:53.812Z,101571.65
2022-11-29T19:08:20.556Z,101571.30
2022-11-29T19:11:49.042Z,101570.79
2022-11-29T19:15:17.552Z,101571.80
2022-11-29T19:18:44.171Z,101569.25
2022-11-29T19:22:13.959Z,101567.70
2022-11-29T19:25:40.427Z,101573.02
2022-11-29T19:29:07.564Z,101575.75
2022-11-29T19:32:38.099Z,101577.13
2022-11-29T19:36:12.657Z,101577.98
2022-11-29T19:39:39.510Z,101576.77
2022-11-29T19:43:06.814Z,101575.91
2022-11-29T19:46:35.796Z,101576.27
2022-11-29T19:50:03.729Z,101578.48
2022-11-29T19:53:35.193Z,101578.14
2022-11-29T19:57:03.068Z,101576.41
2022-11-29T20:00:31.618Z,101585.67
2022-11-29T20:04:07.990Z,101588.77
2022-11-29T20:07:35.721Z,101581.55
2022-11-29T20:11:10.278Z,101593.58
2022-11-29T20:14:41.390Z,101588.95
2022-11-29T20:18:08.343Z,101595.14
2022-11-29T20:21:35.792Z,101599.08
2022-11-29T20:25:03.217Z,101598.39
2022-11-29T20:28:32.283Z,101599.61
2022-11-29T20:31:58.893Z,101594.13
2022-11-29T20:35:26.663Z,101594.98
2022-11-29T20:39:01.710Z,101592.57
2022-11-29T20:43:07.992Z,101589.82
2022-11-29T20:46:35.299Z,101591.52
2022-11-29T20:50:03.449Z,101594.77
2022-11-29T20:53:39.539Z,101595.97
2022-11-29T20:57:06.494Z,101599.39
2022-11-29T21:00:36.898Z,101600.94
2022-11-29T21:04:04.918Z,101596.99
2022-11-29T21:07:31.673Z,101605.90
2022-11-29T21:11:06.058Z,101605.21
2022-11-29T21:14:35.180Z,101608.48
2022-11-29T21:18:03.431Z,101610.73
2022-11-29T21:21:34.080Z,101614.83
2022-11-29T21:25:14.740Z,101616.38
2022-11-29T21:28:50.647Z,101613.64
2022-11-29T21:32:24.746Z,101619.83
2022-11-29T21:35:58.523Z,101620.50
2022-11-29T21:39:31.309Z,101622.06
2022-11-29T21:43:04.636Z,101622.76
2022-11-29T21:46:33.999Z,101625.48
2022-11-29T21:50:00.974Z,101624.29
2022-11-29T21:53:29.725Z,101621.52
2022-11-29T21:56:57.461Z,101623.57
2022-11-29T22:00:27.349Z,101624.59
2022-11-29T22:03:55.649Z,101629.91
2022-11-29T22:07:22.530Z,101624.06
2022-11-29T22:10:49.085Z,101624.56
2022-11-29T22:14:18.402Z,101625.08
2022-11-29T22:17:46.238Z,101628.14
2022-11-29T22:21:13.011Z,101625.58
2022-11-29T22:24:40.946Z,101630.55
2022-11-29T22:28:10.458Z,101624.73
2022-11-29T22:31:38.976Z,101623.02
2022-11-29T22:35:06.091Z,101624.39
2022-11-29T22:38:33.996Z,101624.77
2022-11-29T22:42:00.207Z,101621.17
2022-11-29T22:45:28.222Z,101622.38
2022-11-29T22:48:56.894Z,101625.45
2022-11-29T22:52:23.276Z,101622.71
2022-11-29T22:55:50.264Z,101623.23
2022-11-29T22:59:17.958Z,101617.75
2022-11-29T23:02:45.479Z,101616.02
2022-11-29T23:06:14.706Z,101617.56
2022-11-29T23:09:44.767Z,101620.47
2022-11-29T23:13:12.223Z,101621.83
2022-11-29T23:16:38.888Z,101621.30
2022-11-29T23:20:07.943Z,101618.20
2022-11-29T23:23:38.117Z,101622.66
2022-11-29T23:27:05.882Z,101626.98
2022-11-29T23:30:33.824Z,101630.05
2022-11-29T23:34:00.548Z,101631.77
2022-11-29T23:37:47.463Z,101627.14
2022-11-29T23:41:31.342Z,101627.30
2022-11-29T23:44:58.483Z,101628.53
2022-11-29T23:48:25.749Z,101630.10
2022-11-29T23:51:54.111Z,101633.89
2022-11-29T23:55:25.370Z,101632.69
2022-11-29T23:58:59.136Z,101629.78
